Capreol, Canada
Current Conditions -  °F | °C
As of 5:00 PM on Wednesday 28 Jan 2015 (Local Time) from CYSB Reporting Station
Broken Clouds Broken Clouds  
Wind Chill:   Ceiling: 24000
Heat Index: 18°   Visibility: 20mi
Dew Point:   Wind: 8mph
Humidity: 45%   Direction: 220°SW
Pressure: 30.16"   Gusts: NA
Location:  46.7°N, 80.92°W
Report Text: CYSB 282200Z 22007KT 20SM BKN240 M08/M18 A3016 RMK CI7 SLP245
Loading
Personal Weather Stations






























Interactive Weather Map New forecast layout! Learn more

10-Day Weather Forecast

Advertisements
Track Severe Weather on mobile